KERI/ERI METAR and TAF weather

Enter ICAO airport designator
Station Type Date Time Source
KERI METAR 2022/08/16 16:51 UTC NOAA

KERI 161651Z 07007KT 10SM SCT080 OVC110 21/14 A3009 RMK AO2 RAB16E42 SLP188 P0000 T02110144


Station Type Date Time Source
KERI Decoded METAR 2022/08/16 16:51 UTC NOAA

ERIE INTERNATIONAL AIRPORT, PA, United States (KERI) 42-05N 080-11W 222M
Aug 16, 2022 - 12:51 PM EDT / 2022.08.16 1651 UTC
Wind: from the ENE (070 degrees) at 8 MPH (7 KT):0
Visibility: 10 mile(s):0
Sky conditions: overcast
Precipitation last hour: A trace
Temperature: 70.0 F (21.1 C)
Dew Point: 57.9 F (14.4 C)
Relative Humidity: 65%
Pressure (altimeter): 30.09 in. Hg (1018 hPa)
ob: KERI 161651Z 07007KT 10SM SCT080 OVC110 21/14 A3009 RMK AO2 RAB16E42 SLP188 P0000 T02110144
cycle: 17

Station Type Date Time Source
KERI TAF 2022/08/16 18:42 UTC NOAA

TAF KERI 161739Z 1618/1718 07010KT P6SM BKN100
FM162100 07009KT P6SM BKN090
FM170400 10007KT P6SM VCSH BKN080
FM171300 07007KT P6SM BKN100

Example: see airport list